Thunder radar more information blitzortung!


Radar de pluja more information rain snow radar


Visita la nostra xarxa de llocs de meteo:

Template documentation
and downloads

And another site



Wind From: 11-12-2017 11:00 Until: 14:59 warning for: Wind Level: Yellow info button

Pagina Historial Weather Underground text

Diari Resum Juny 6, 2017 Unitats:  Tant    Imperial   Mètric
« Previous Dia
SegĂźent Dia »
Diari Setmana Mensual Anual Personalitzada
  Maxima: Minima: Media:
Temperatura: 86.2 °F /  30.1 °C 62.6 °F /  17.0 °C 73.2 °F /  22.9 °C
Punt de rosada: 59.9 °F /  15.5 °C 51.1 °F /  10.6 °C 56.7 °F /  13.7 °C
Humitat: 81 % 33 % 58 %
Wind Speed: 19.9 mph /  32.0 km/h - 6.3 mph /  10.2 km/h
RĂ fegues de vent: 19.9 mph /  32.0 km/h - -
Vent:- - SSE
Pression baro: 30.1 in /  1018.8 hPa 29.8 in /  1010.7 hPa -
Precipitacions: 0 in /  0.0 mm    
Historical Graphs
 
 
Dades de taula per Juny 6, 2017
Temps Temperatura Punt de rosada Pression baro Vent Wind Speed RĂ fegues de vent Humitat Rainfall Rate (Hourly)
00:01 63.5 °F /  17.5 °C 51.1 °F /  10.6 °C 29.9 in /  1011.7 hPa SW 4.6 mph /  7.4 km/h 4.6 mph /  7.4 km/h 64 % 0 in /  0.0 mm
00:06 63.5 °F /  17.5 °C 51.1 °F /  10.6 °C 29.9 in /  1011.7 hPa WSW 4.6 mph /  7.4 km/h 4.6 mph /  7.4 km/h 64 % 0 in /  0.0 mm
03:05 63.5 °F /  17.5 °C 54 °F /  12.2 °C 29.8 in /  1010.7 hPa SW 2 mph /  3.2 km/h 3 mph /  4.8 km/h 71 % 0 in /  0.0 mm
03:15 64.4 °F /  18.0 °C 54.3 °F /  12.4 °C 29.8 in /  1010.7 hPa SW 2 mph /  3.2 km/h 3 mph /  4.8 km/h 70 % 0 in /  0.0 mm
03:25 65.5 °F /  18.6 °C 55 °F /  12.8 °C 29.8 in /  1010.7 hPa SW 1 mph /  1.6 km/h 4 mph /  6.4 km/h 69 % 0 in /  0.0 mm
03:35 66.2 °F /  19.0 °C 55.2 °F /  12.9 °C 29.8 in /  1010.7 hPa SW 2 mph /  3.2 km/h 3 mph /  4.8 km/h 68 % 0 in /  0.0 mm
03:45 66.9 °F /  19.4 °C 56.5 °F /  13.6 °C 29.8 in /  1010.7 hPa SW 2 mph /  3.2 km/h 3 mph /  4.8 km/h 69 % 0 in /  0.0 mm
03:55 67.1 °F /  19.5 °C 56.1 °F /  13.4 °C 29.8 in /  1010.7 hPa SW 3 mph /  4.8 km/h 4 mph /  6.4 km/h 68 % 0 in /  0.0 mm
04:05 68 °F /  20.0 °C 56.1 °F /  13.4 °C 29.8 in /  1010.7 hPa WSW 3 mph /  4.8 km/h 4 mph /  6.4 km/h 66 % 0 in /  0.0 mm
04:15 69.4 °F /  20.8 °C 57.6 °F /  14.2 °C 29.9 in /  1011.7 hPa SW 3 mph /  4.8 km/h 3 mph /  4.8 km/h 66 % 0 in /  0.0 mm
04:25 70 °F /  21.1 °C 57.7 °F /  14.3 °C 29.9 in /  1011.7 hPa SW 2 mph /  3.2 km/h 4 mph /  6.4 km/h 65 % 0 in /  0.0 mm
04:35 71.8 °F /  22.1 °C 58.5 °F /  14.7 °C 29.9 in /  1011.7 hPa SSW 2 mph /  3.2 km/h 2 mph /  3.2 km/h 63 % 0 in /  0.0 mm
04:45 71.4 °F /  21.9 °C 58.6 °F /  14.8 °C 29.9 in /  1011.7 hPa SW 2 mph /  3.2 km/h 5 mph /  8.0 km/h 64 % 0 in /  0.0 mm
04:55 71.4 °F /  21.9 °C 57.7 °F /  14.3 °C 29.9 in /  1011.7 hPa WNW 2 mph /  3.2 km/h 3 mph /  4.8 km/h 62 % 0 in /  0.0 mm
05:05 72 °F /  22.2 °C 56.8 °F /  13.8 °C 29.9 in /  1011.7 hPa NNE 3 mph /  4.8 km/h 3 mph /  4.8 km/h 59 % 0 in /  0.0 mm
05:15 72.7 °F /  22.6 °C 57.6 °F /  14.2 °C 29.9 in /  1011.7 hPa ENE 2 mph /  3.2 km/h 3 mph /  4.8 km/h 59 % 0 in /  0.0 mm
05:25 73.4 °F /  23.0 °C 56.1 °F /  13.4 °C 29.9 in /  1011.7 hPa East 2 mph /  3.2 km/h 4 mph /  6.4 km/h 55 % 0 in /  0.0 mm
10:33 74.5 °F /  23.6 °C 56.7 °F /  13.7 °C 29.9 in /  1011.7 hPa East 4.6 mph /  7.4 km/h 4.6 mph /  7.4 km/h 54 % 0 in /  0.0 mm
10:38 74.3 °F /  23.5 °C 57 °F /  13.9 °C 29.9 in /  1011.7 hPa NNE 4 mph /  6.4 km/h 4 mph /  6.4 km/h 55 % 0 in /  0.0 mm
10:43 73.9 °F /  23.3 °C 56.1 °F /  13.4 °C 29.9 in /  1011.7 hPa East 3.6 mph /  5.8 km/h 3.6 mph /  5.8 km/h 54 % 0 in /  0.0 mm
10:48 74.5 °F /  23.6 °C 57.4 °F /  14.1 °C 29.9 in /  1011.7 hPa NE 3.5 mph /  5.6 km/h 3.5 mph /  5.6 km/h 55 % 0 in /  0.0 mm
10:53 75.4 °F /  24.1 °C 57 °F /  13.9 °C 29.9 in /  1011.7 hPa ESE 3.5 mph /  5.6 km/h 3.5 mph /  5.6 km/h 53 % 0 in /  0.0 mm
10:58 75.7 °F /  24.3 °C 57.4 °F /  14.1 °C 29.9 in /  1011.7 hPa NE 2.3 mph /  3.7 km/h 2.3 mph /  3.7 km/h 53 % 0 in /  0.0 mm
11:03 75.9 °F /  24.4 °C 56.5 °F /  13.6 °C 29.9 in /  1011.7 hPa ESE 3.6 mph /  5.8 km/h 3.6 mph /  5.8 km/h 51 % 0 in /  0.0 mm
11:08 76.5 °F /  24.7 °C 57.6 °F /  14.2 °C 29.9 in /  1011.7 hPa WSW 2.4 mph /  3.9 km/h 2.4 mph /  3.9 km/h 52 % 0 in /  0.0 mm
11:13 77.9 °F /  25.5 °C 57.7 °F /  14.3 °C 29.9 in /  1011.7 hPa SW 2.4 mph /  3.9 km/h 2.4 mph /  3.9 km/h 50 % 0 in /  0.0 mm
11:18 78.8 °F /  26.0 °C 58.6 °F /  14.8 °C 29.9 in /  1012.8 hPa WSW 2.9 mph /  4.7 km/h 2.9 mph /  4.7 km/h 50 % 0 in /  0.0 mm
11:23 79 °F /  26.1 °C 58.3 °F /  14.6 °C 29.9 in /  1012.8 hPa NNW 3.5 mph /  5.6 km/h 3.5 mph /  5.6 km/h 49 % 0 in /  0.0 mm
11:28 80.2 °F /  26.8 °C 59.4 °F /  15.2 °C 29.9 in /  1012.8 hPa SSW 3.8 mph /  6.1 km/h 3.8 mph /  6.1 km/h 49 % 0 in /  0.0 mm
11:33 80.4 °F /  26.9 °C 58.8 °F /  14.9 °C 29.9 in /  1011.7 hPa West 3.5 mph /  5.6 km/h 3.5 mph /  5.6 km/h 48 % 0 in /  0.0 mm
11:38 80.6 °F /  27.0 °C 58.5 °F /  14.7 °C 29.9 in /  1011.7 hPa WSW 3.5 mph /  5.6 km/h 3.5 mph /  5.6 km/h 47 % 0 in /  0.0 mm
11:43 80.1 °F /  26.7 °C 57.9 °F /  14.4 °C 29.9 in /  1011.7 hPa WSW 9.2 mph /  14.8 km/h 9.2 mph /  14.8 km/h 47 % 0 in /  0.0 mm
11:48 80.6 °F /  27.0 °C 57.4 °F /  14.1 °C 29.9 in /  1011.7 hPa SW 3.5 mph /  5.6 km/h 3.5 mph /  5.6 km/h 45 % 0 in /  0.0 mm
11:53 81 °F /  27.2 °C 57.6 °F /  14.2 °C 29.9 in /  1011.7 hPa West 3.5 mph /  5.6 km/h 3.5 mph /  5.6 km/h 45 % 0 in /  0.0 mm
11:58 81.3 °F /  27.4 °C 57.9 °F /  14.4 °C 29.9 in /  1011.7 hPa SW 2.6 mph /  4.2 km/h 2.6 mph /  4.2 km/h 45 % 0 in /  0.0 mm
12:03 80.8 °F /  27.1 °C 56.1 °F /  13.4 °C 29.8 in /  1010.7 hPa WSW 6.9 mph /  11.1 km/h 6.9 mph /  11.1 km/h 43 % 0 in /  0.0 mm
12:08 80.4 °F /  26.9 °C 55.9 °F /  13.3 °C 29.8 in /  1010.7 hPa WNW 4.6 mph /  7.4 km/h 4.6 mph /  7.4 km/h 43 % 0 in /  0.0 mm
12:13 81.5 °F /  27.5 °C 56.8 °F /  13.8 °C 29.8 in /  1010.7 hPa SSW 2.3 mph /  3.7 km/h 2.3 mph /  3.7 km/h 43 % 0 in /  0.0 mm
12:18 81.7 °F /  27.6 °C 57 °F /  13.9 °C 29.8 in /  1010.7 hPa WSW 3.5 mph /  5.6 km/h 3.5 mph /  5.6 km/h 43 % 0 in /  0.0 mm
12:23 82.2 °F /  27.9 °C 56.8 °F /  13.8 °C 29.8 in /  1010.7 hPa ESE 2.3 mph /  3.7 km/h 2.4 mph /  3.9 km/h 42 % 0 in /  0.0 mm
12:28 82.2 °F /  27.9 °C 56.8 °F /  13.8 °C 29.8 in /  1010.7 hPa SW 4.6 mph /  7.4 km/h 4.6 mph /  7.4 km/h 42 % 0 in /  0.0 mm
12:33 82 °F /  27.8 °C 56.7 °F /  13.7 °C 29.8 in /  1010.7 hPa WSW 5.4 mph /  8.7 km/h 5.4 mph /  8.7 km/h 42 % 0 in /  0.0 mm
12:38 82 °F /  27.8 °C 55.2 °F /  12.9 °C 29.8 in /  1010.7 hPa SSW 6.9 mph /  11.1 km/h 6.9 mph /  11.1 km/h 40 % 0 in /  0.0 mm
12:43 82.6 °F /  28.1 °C 56.5 °F /  13.6 °C 29.8 in /  1010.7 hPa SSW 6.4 mph /  10.3 km/h 6.4 mph /  10.3 km/h 41 % 0 in /  0.0 mm
12:48 83.3 °F /  28.5 °C 56.5 °F /  13.6 °C 29.8 in /  1010.7 hPa WSW 3.6 mph /  5.8 km/h 3.6 mph /  5.8 km/h 40 % 0 in /  0.0 mm
12:53 82.8 °F /  28.2 °C 55.2 °F /  12.9 °C 29.8 in /  1010.7 hPa ESE 2.3 mph /  3.7 km/h 2.3 mph /  3.7 km/h 39 % 0 in /  0.0 mm
12:54 82.6 °F /  28.1 °C 55 °F /  12.8 °C 29.8 in /  1010.7 hPa ESE 2.3 mph /  3.7 km/h 2.3 mph /  3.7 km/h 39 % 0 in /  0.0 mm
12:59 82.6 °F /  28.1 °C 55.8 °F /  13.2 °C 29.8 in /  1010.7 hPa West 3.8 mph /  6.1 km/h 3.8 mph /  6.1 km/h 40 % 0 in /  0.0 mm
13:04 83.7 °F /  28.7 °C 56.8 °F /  13.8 °C 29.8 in /  1010.7 hPa West 5.8 mph /  9.3 km/h 5.8 mph /  9.3 km/h 40 % 0 in /  0.0 mm
13:09 83.8 °F /  28.8 °C 56.8 °F /  13.8 °C 29.8 in /  1010.7 hPa SW 4.6 mph /  7.4 km/h 4.6 mph /  7.4 km/h 40 % 0 in /  0.0 mm
13:10 84.2 °F /  29.0 °C 56.7 °F /  13.7 °C 29.8 in /  1010.7 hPa WSW 4 mph /  6.4 km/h 4 mph /  6.4 km/h 39 % 0 in /  0.0 mm
13:15 84.6 °F /  29.2 °C 56.1 °F /  13.4 °C 29.8 in /  1010.7 hPa NW 4.6 mph /  7.4 km/h 4.6 mph /  7.4 km/h 38 % 0 in /  0.0 mm
13:20 83.5 °F /  28.6 °C 55.9 °F /  13.3 °C 29.8 in /  1010.7 hPa NNW 3.5 mph /  5.6 km/h 3.5 mph /  5.6 km/h 39 % 0 in /  0.0 mm
13:25 83.1 °F /  28.4 °C 55.6 °F /  13.1 °C 29.8 in /  1010.7 hPa SSE 3.6 mph /  5.8 km/h 3.6 mph /  5.8 km/h 39 % 0 in /  0.0 mm
13:30 83.1 °F /  28.4 °C 54.9 °F /  12.7 °C 29.8 in /  1010.7 hPa NNW 2.3 mph /  3.7 km/h 2.4 mph /  3.9 km/h 38 % 0 in /  0.0 mm
13:35 82.8 °F /  28.2 °C 54.7 °F /  12.6 °C 29.8 in /  1010.7 hPa NW 3.1 mph /  5.0 km/h 3.1 mph /  5.0 km/h 38 % 0 in /  0.0 mm
13:40 82.8 °F /  28.2 °C 54.7 °F /  12.6 °C 29.8 in /  1010.7 hPa WNW 2.6 mph /  4.2 km/h 2.6 mph /  4.2 km/h 38 % 0 in /  0.0 mm
13:45 82.4 °F /  28.0 °C 54.1 °F /  12.3 °C 29.8 in /  1010.7 hPa ESE 2.3 mph /  3.7 km/h 2.3 mph /  3.7 km/h 38 % 0 in /  0.0 mm
13:50 83.7 °F /  28.7 °C 56.1 °F /  13.4 °C 29.8 in /  1010.7 hPa SW 4.6 mph /  7.4 km/h 4.6 mph /  7.4 km/h 39 % 0 in /  0.0 mm
13:55 84.6 °F /  29.2 °C 55.4 °F /  13.0 °C 29.8 in /  1010.7 hPa SW 3.5 mph /  5.6 km/h 3.5 mph /  5.6 km/h 37 % 0 in /  0.0 mm
14:00 84 °F /  28.9 °C 54.9 °F /  12.7 °C 29.8 in /  1010.7 hPa WSW 4.6 mph /  7.4 km/h 4.6 mph /  7.4 km/h 37 % 0 in /  0.0 mm
14:05 84.9 °F /  29.4 °C 55 °F /  12.8 °C 29.8 in /  1010.7 hPa South 5.8 mph /  9.3 km/h 5.8 mph /  9.3 km/h 36 % 0 in /  0.0 mm
14:07 85.3 °F /  29.6 °C 55.2 °F /  12.9 °C 29.8 in /  1010.7 hPa West 5.8 mph /  9.3 km/h 5.8 mph /  9.3 km/h 36 % 0 in /  0.0 mm
14:12 84.9 °F /  29.4 °C 54.1 °F /  12.3 °C 29.8 in /  1010.7 hPa North 4.6 mph /  7.4 km/h 4.6 mph /  7.4 km/h 35 % 0 in /  0.0 mm
14:17 85.6 °F /  29.8 °C 55.6 °F /  13.1 °C 29.8 in /  1010.7 hPa SW 8.1 mph /  13.0 km/h 8.1 mph /  13.0 km/h 36 % 0 in /  0.0 mm
14:22 84.9 °F /  29.4 °C 52.5 °F /  11.4 °C 29.9 in /  1011.7 hPa ESE 6.9 mph /  11.1 km/h 6.9 mph /  11.1 km/h 33 % 0 in /  0.0 mm
14:27 86.2 °F /  30.1 °C 54.5 °F /  12.5 °C 29.9 in /  1011.7 hPa West 5.8 mph /  9.3 km/h 5.8 mph /  9.3 km/h 34 % 0 in /  0.0 mm
14:32 86.2 °F /  30.1 °C 53.8 °F /  12.1 °C 29.9 in /  1011.7 hPa WSW 4.6 mph /  7.4 km/h 4.6 mph /  7.4 km/h 33 % 0 in /  0.0 mm
14:37 84.9 °F /  29.4 °C 52.5 °F /  11.4 °C 29.8 in /  1010.7 hPa SW 5.8 mph /  9.3 km/h 5.8 mph /  9.3 km/h 33 % 0 in /  0.0 mm
14:42 84.7 °F /  29.3 °C 52.3 °F /  11.3 °C 29.8 in /  1010.7 hPa West 5.8 mph /  9.3 km/h 5.8 mph /  9.3 km/h 33 % 0 in /  0.0 mm
14:47 84.4 °F /  29.1 °C 52.2 °F /  11.2 °C 29.8 in /  1010.7 hPa WNW 2.3 mph /  3.7 km/h 2.3 mph /  3.7 km/h 33 % 0 in /  0.0 mm
14:52 84.2 °F /  29.0 °C 52 °F /  11.1 °C 29.9 in /  1011.7 hPa SSW 4.6 mph /  7.4 km/h 4.6 mph /  7.4 km/h 33 % 0 in /  0.0 mm
14:57 83.8 °F /  28.8 °C 52.5 °F /  11.4 °C 29.9 in /  1011.7 hPa ENE 2.3 mph /  3.7 km/h 2.3 mph /  3.7 km/h 34 % 0 in /  0.0 mm
15:02 84 °F /  28.9 °C 52.5 °F /  11.4 °C 29.9 in /  1011.7 hPa SW 2.3 mph /  3.7 km/h 2.3 mph /  3.7 km/h 34 % 0 in /  0.0 mm
15:07 83.7 °F /  28.7 °C 51.4 °F /  10.8 °C 29.9 in /  1011.7 hPa NE 3.5 mph /  5.6 km/h 3.5 mph /  5.6 km/h 33 % 0 in /  0.0 mm
15:12 83.3 °F /  28.5 °C 52 °F /  11.1 °C 29.9 in /  1011.7 hPa NW 3.5 mph /  5.6 km/h 3.5 mph /  5.6 km/h 34 % 0 in /  0.0 mm
15:17 83.3 °F /  28.5 °C 52.9 °F /  11.6 °C 29.9 in /  1011.7 hPa ENE 6.9 mph /  11.1 km/h 6.9 mph /  11.1 km/h 35 % 0 in /  0.0 mm
15:22 81.7 °F /  27.6 °C 51.4 °F /  10.8 °C 29.8 in /  1010.7 hPa ESE 19.6 mph /  31.5 km/h 19.6 mph /  31.5 km/h 35 % 0 in /  0.0 mm
15:27 79.9 °F /  26.6 °C 52.7 °F /  11.5 °C 29.8 in /  1010.7 hPa NNE 19.9 mph /  32.0 km/h 19.9 mph /  32.0 km/h 39 % 0 in /  0.0 mm
15:32 77.5 °F /  25.3 °C 51.3 °F /  10.7 °C 29.8 in /  1010.7 hPa East 8.1 mph /  13.0 km/h 8.1 mph /  13.0 km/h 40 % 0 in /  0.0 mm
15:37 76.6 °F /  24.8 °C 51.8 °F /  11.0 °C 29.8 in /  1010.7 hPa ESE 10.5 mph /  16.9 km/h 10.5 mph /  16.9 km/h 42 % 0 in /  0.0 mm
15:42 76.3 °F /  24.6 °C 52.9 °F /  11.6 °C 29.8 in /  1010.7 hPa East 12.5 mph /  20.1 km/h 12.5 mph /  20.1 km/h 44 % 0 in /  0.0 mm
15:47 76.5 °F /  24.7 °C 53.4 °F /  11.9 °C 29.8 in /  1010.7 hPa ENE 8.1 mph /  13.0 km/h 8.1 mph /  13.0 km/h 45 % 0 in /  0.0 mm
15:52 76.1 °F /  24.5 °C 53.8 °F /  12.1 °C 29.9 in /  1011.7 hPa East 13 mph /  20.9 km/h 13 mph /  20.9 km/h 46 % 0 in /  0.0 mm
15:57 75.6 °F /  24.2 °C 54 °F /  12.2 °C 29.9 in /  1011.7 hPa ENE 10.4 mph /  16.7 km/h 10.4 mph /  16.7 km/h 47 % 0 in /  0.0 mm
16:02 75 °F /  23.9 °C 53.4 °F /  11.9 °C 29.9 in /  1011.7 hPa NNE 8.1 mph /  13.0 km/h 8.1 mph /  13.0 km/h 47 % 0 in /  0.0 mm
16:07 75.4 °F /  24.1 °C 54.3 °F /  12.4 °C 29.9 in /  1011.7 hPa NNW 10.4 mph /  16.7 km/h 10.4 mph /  16.7 km/h 48 % 0 in /  0.0 mm
16:12 75.7 °F /  24.3 °C 54.7 °F /  12.6 °C 29.9 in /  1011.7 hPa NNE 12.7 mph /  20.4 km/h 12.7 mph /  20.4 km/h 48 % 0 in /  0.0 mm
16:17 75.9 °F /  24.4 °C 54.9 °F /  12.7 °C 29.9 in /  1011.7 hPa East 10 mph /  16.1 km/h 10 mph /  16.1 km/h 48 % 0 in /  0.0 mm
16:22 75.6 °F /  24.2 °C 55 °F /  12.8 °C 29.9 in /  1011.7 hPa East 13.2 mph /  21.2 km/h 13.2 mph /  21.2 km/h 49 % 0 in /  0.0 mm
16:27 75.6 °F /  24.2 °C 55 °F /  12.8 °C 29.9 in /  1011.7 hPa NNE 9.2 mph /  14.8 km/h 9.2 mph /  14.8 km/h 49 % 0 in /  0.0 mm
16:32 75.2 °F /  24.0 °C 55.8 °F /  13.2 °C 29.9 in /  1011.7 hPa NE 13.8 mph /  22.2 km/h 13.8 mph /  22.2 km/h 51 % 0 in /  0.0 mm
16:37 75.4 °F /  24.1 °C 55.9 °F /  13.3 °C 29.9 in /  1011.7 hPa ENE 12.7 mph /  20.4 km/h 12.7 mph /  20.4 km/h 51 % 0 in /  0.0 mm
16:42 75.6 °F /  24.2 °C 56.7 °F /  13.7 °C 29.9 in /  1011.7 hPa ENE 10.9 mph /  17.5 km/h 10.9 mph /  17.5 km/h 52 % 0 in /  0.0 mm
16:47 75 °F /  23.9 °C 56.1 °F /  13.4 °C 29.9 in /  1011.7 hPa NNW 10.4 mph /  16.7 km/h 10.4 mph /  16.7 km/h 52 % 0 in /  0.0 mm
16:52 74.7 °F /  23.7 °C 56.5 °F /  13.6 °C 29.9 in /  1011.7 hPa East 10.4 mph /  16.7 km/h 10.4 mph /  16.7 km/h 53 % 0 in /  0.0 mm
16:57 75.2 °F /  24.0 °C 56.8 °F /  13.8 °C 29.9 in /  1011.7 hPa NNE 9.2 mph /  14.8 km/h 9.2 mph /  14.8 km/h 53 % 0 in /  0.0 mm
17:02 75 °F /  23.9 °C 57.2 °F /  14.0 °C 29.9 in /  1011.7 hPa NE 10.4 mph /  16.7 km/h 10.4 mph /  16.7 km/h 54 % 0 in /  0.0 mm
17:07 74.7 °F /  23.7 °C 57.9 °F /  14.4 °C 29.9 in /  1012.8 hPa ENE 9.2 mph /  14.8 km/h 9.2 mph /  14.8 km/h 56 % 0 in /  0.0 mm
17:12 74.3 °F /  23.5 °C 58.1 °F /  14.5 °C 29.9 in /  1012.8 hPa ESE 10.4 mph /  16.7 km/h 10.4 mph /  16.7 km/h 57 % 0 in /  0.0 mm
17:17 74.1 °F /  23.4 °C 58.5 °F /  14.7 °C 29.9 in /  1012.8 hPa ENE 10.4 mph /  16.7 km/h 10.4 mph /  16.7 km/h 58 % 0 in /  0.0 mm
17:22 74.5 °F /  23.6 °C 59.2 °F /  15.1 °C 29.9 in /  1012.8 hPa East 10.4 mph /  16.7 km/h 10.4 mph /  16.7 km/h 59 % 0 in /  0.0 mm
17:27 74.5 °F /  23.6 °C 59.2 °F /  15.1 °C 29.9 in /  1012.8 hPa ENE 9.2 mph /  14.8 km/h 9.2 mph /  14.8 km/h 59 % 0 in /  0.0 mm
17:32 74.1 °F /  23.4 °C 59.4 °F /  15.2 °C 29.9 in /  1012.8 hPa East 9.2 mph /  14.8 km/h 9.2 mph /  14.8 km/h 60 % 0 in /  0.0 mm
17:37 73.8 °F /  23.2 °C 59.5 °F /  15.3 °C 29.9 in /  1012.8 hPa North 15 mph /  24.1 km/h 15 mph /  24.1 km/h 61 % 0 in /  0.0 mm
17:42 73.6 °F /  23.1 °C 59.7 °F /  15.4 °C 29.9 in /  1012.8 hPa ENE 12.7 mph /  20.4 km/h 12.7 mph /  20.4 km/h 62 % 0 in /  0.0 mm
17:47 73 °F /  22.8 °C 59.7 °F /  15.4 °C 29.9 in /  1012.8 hPa ENE 15 mph /  24.1 km/h 15 mph /  24.1 km/h 63 % 0 in /  0.0 mm
17:52 73.2 °F /  22.9 °C 59.9 °F /  15.5 °C 29.9 in /  1012.8 hPa ESE 10.4 mph /  16.7 km/h 10.4 mph /  16.7 km/h 63 % 0 in /  0.0 mm
17:57 73 °F /  22.8 °C 59.2 °F /  15.1 °C 29.9 in /  1012.8 hPa East 9.2 mph /  14.8 km/h 9.2 mph /  14.8 km/h 62 % 0 in /  0.0 mm
18:02 72.9 °F /  22.7 °C 59.2 °F /  15.1 °C 29.9 in /  1012.8 hPa East 15 mph /  24.1 km/h 15 mph /  24.1 km/h 62 % 0 in /  0.0 mm
18:07 72.3 °F /  22.4 °C 58.6 °F /  14.8 °C 29.9 in /  1012.8 hPa ENE 9.2 mph /  14.8 km/h 9.2 mph /  14.8 km/h 62 % 0 in /  0.0 mm
18:12 72.5 °F /  22.5 °C 58.3 °F /  14.6 °C 29.9 in /  1012.8 hPa ESE 10.4 mph /  16.7 km/h 10.4 mph /  16.7 km/h 61 % 0 in /  0.0 mm
18:17 72.1 °F /  22.3 °C 57.9 °F /  14.4 °C 29.9 in /  1012.8 hPa East 10.9 mph /  17.5 km/h 10.9 mph /  17.5 km/h 61 % 0 in /  0.0 mm
18:22 71.8 °F /  22.1 °C 57.6 °F /  14.2 °C 29.9 in /  1013.8 hPa East 15 mph /  24.1 km/h 15 mph /  24.1 km/h 61 % 0 in /  0.0 mm
18:27 72 °F /  22.2 °C 57.7 °F /  14.3 °C 29.9 in /  1013.8 hPa ESE 7.8 mph /  12.6 km/h 7.8 mph /  12.6 km/h 61 % 0 in /  0.0 mm
18:32 72 °F /  22.2 °C 57.7 °F /  14.3 °C 29.9 in /  1013.8 hPa SE 10.4 mph /  16.7 km/h 10.4 mph /  16.7 km/h 61 % 0 in /  0.0 mm
18:37 71.8 °F /  22.1 °C 57.6 °F /  14.2 °C 29.9 in /  1013.8 hPa ENE 9.2 mph /  14.8 km/h 9.2 mph /  14.8 km/h 61 % 0 in /  0.0 mm
18:42 72 °F /  22.2 °C 57.7 °F /  14.3 °C 29.9 in /  1013.8 hPa ESE 8.1 mph /  13.0 km/h 8.1 mph /  13.0 km/h 61 % 0 in /  0.0 mm
18:47 71.8 °F /  22.1 °C 57.6 °F /  14.2 °C 29.9 in /  1013.8 hPa ENE 13 mph /  20.9 km/h 13 mph /  20.9 km/h 61 % 0 in /  0.0 mm
18:52 71.2 °F /  21.8 °C 57.6 °F /  14.2 °C 29.9 in /  1013.8 hPa ESE 12.3 mph /  19.8 km/h 12.3 mph /  19.8 km/h 62 % 0 in /  0.0 mm
18:57 71.1 °F /  21.7 °C 57.7 °F /  14.3 °C 29.9 in /  1013.8 hPa ESE 10.7 mph /  17.2 km/h 10.7 mph /  17.2 km/h 63 % 0 in /  0.0 mm
19:02 70.5 °F /  21.4 °C 57.7 °F /  14.3 °C 29.9 in /  1013.8 hPa SE 13.8 mph /  22.2 km/h 13.8 mph /  22.2 km/h 64 % 0 in /  0.0 mm
19:07 70.2 °F /  21.2 °C 57.7 °F /  14.3 °C 29.9 in /  1012.8 hPa ESE 9.8 mph /  15.8 km/h 9.8 mph /  15.8 km/h 65 % 0 in /  0.0 mm
19:12 70.3 °F /  21.3 °C 57.9 °F /  14.4 °C 29.9 in /  1012.8 hPa ESE 11.5 mph /  18.5 km/h 11.5 mph /  18.5 km/h 65 % 0 in /  0.0 mm
19:15 66 °F /  18.9 °C 57.6 °F /  14.2 °C 29.9 in /  1011.7 hPa SE 2 mph /  3.2 km/h 2 mph /  3.2 km/h 74 % 0 in /  0.0 mm
19:17 69.8 °F /  21.0 °C 57.9 °F /  14.4 °C 29.9 in /  1012.8 hPa ESE 12.7 mph /  20.4 km/h 12.7 mph /  20.4 km/h 66 % 0 in /  0.0 mm
19:20 69.6 °F /  20.9 °C 57.7 °F /  14.3 °C 29.9 in /  1012.8 hPa East 12.7 mph /  20.4 km/h 12.7 mph /  20.4 km/h 66 % 0 in /  0.0 mm
19:25 69.4 °F /  20.8 °C 57.9 °F /  14.4 °C 29.9 in /  1012.8 hPa SE 10.4 mph /  16.7 km/h 10.4 mph /  16.7 km/h 67 % 0 in /  0.0 mm
19:30 69.4 °F /  20.8 °C 57.9 °F /  14.4 °C 29.9 in /  1012.8 hPa ESE 12.7 mph /  20.4 km/h 12.7 mph /  20.4 km/h 67 % 0 in /  0.0 mm
19:35 69.4 °F /  20.8 °C 57.9 °F /  14.4 °C 29.9 in /  1013.8 hPa NE 8.1 mph /  13.0 km/h 8.1 mph /  13.0 km/h 67 % 0 in /  0.0 mm
19:40 69.3 °F /  20.7 °C 57.7 °F /  14.3 °C 29.9 in /  1013.8 hPa ESE 12.7 mph /  20.4 km/h 12.7 mph /  20.4 km/h 67 % 0 in /  0.0 mm
19:45 69.1 °F /  20.6 °C 57.7 °F /  14.3 °C 29.9 in /  1013.8 hPa East 5.9 mph /  9.5 km/h 5.9 mph /  9.5 km/h 67 % 0 in /  0.0 mm
19:50 68.7 °F /  20.4 °C 57.4 °F /  14.1 °C 29.9 in /  1013.8 hPa ESE 10.4 mph /  16.7 km/h 10.4 mph /  16.7 km/h 67 % 0 in /  0.0 mm
19:55 68.9 °F /  20.5 °C 57.9 °F /  14.4 °C 29.9 in /  1013.8 hPa ESE 8.1 mph /  13.0 km/h 8.1 mph /  13.0 km/h 68 % 0 in /  0.0 mm
20:00 68.9 °F /  20.5 °C 57.9 °F /  14.4 °C 29.9 in /  1013.8 hPa ESE 8.1 mph /  13.0 km/h 8.1 mph /  13.0 km/h 68 % 0 in /  0.0 mm
20:05 68.7 °F /  20.4 °C 57.7 °F /  14.3 °C 29.9 in /  1013.8 hPa ESE 13.8 mph /  22.2 km/h 13.8 mph /  22.2 km/h 68 % 0 in /  0.0 mm
20:10 68.5 °F /  20.3 °C 57.6 °F /  14.2 °C 29.9 in /  1013.8 hPa ENE 9.2 mph /  14.8 km/h 9.2 mph /  14.8 km/h 68 % 0 in /  0.0 mm
20:15 68.4 °F /  20.2 °C 57.4 °F /  14.1 °C 29.9 in /  1013.8 hPa ESE 12.5 mph /  20.1 km/h 12.5 mph /  20.1 km/h 68 % 0 in /  0.0 mm
20:20 68.2 °F /  20.1 °C 57.6 °F /  14.2 °C 30 in /  1014.8 hPa ESE 9.2 mph /  14.8 km/h 9.2 mph /  14.8 km/h 69 % 0 in /  0.0 mm
20:25 68 °F /  20.0 °C 57.4 °F /  14.1 °C 30 in /  1014.8 hPa East 6.9 mph /  11.1 km/h 6.9 mph /  11.1 km/h 69 % 0 in /  0.0 mm
20:30 68 °F /  20.0 °C 57.4 °F /  14.1 °C 30 in /  1014.8 hPa SE 7.6 mph /  12.2 km/h 7.6 mph /  12.2 km/h 69 % 0 in /  0.0 mm
20:35 68 °F /  20.0 °C 57.4 °F /  14.1 °C 30 in /  1014.8 hPa ESE 11.4 mph /  18.3 km/h 11.4 mph /  18.3 km/h 69 % 0 in /  0.0 mm
20:40 67.8 °F /  19.9 °C 58.1 °F /  14.5 °C 30 in /  1014.8 hPa ESE 9.2 mph /  14.8 km/h 9.2 mph /  14.8 km/h 71 % 0 in /  0.0 mm
20:45 67.8 °F /  19.9 °C 58.1 °F /  14.5 °C 30 in /  1014.8 hPa ESE 3.5 mph /  5.6 km/h 3.5 mph /  5.6 km/h 71 % 0 in /  0.0 mm
20:50 67.8 °F /  19.9 °C 57.7 °F /  14.3 °C 30 in /  1014.8 hPa ESE 6.9 mph /  11.1 km/h 6.9 mph /  11.1 km/h 70 % 0 in /  0.0 mm
20:55 67.6 °F /  19.8 °C 57.9 °F /  14.4 °C 30 in /  1014.8 hPa SE 5.8 mph /  9.3 km/h 5.8 mph /  9.3 km/h 71 % 0 in /  0.0 mm
21:00 67.8 °F /  19.9 °C 58.1 °F /  14.5 °C 30 in /  1014.8 hPa ESE 7.8 mph /  12.6 km/h 7.8 mph /  12.6 km/h 71 % 0 in /  0.0 mm
21:05 67.5 °F /  19.7 °C 57.7 °F /  14.3 °C 30 in /  1014.8 hPa ESE 9.2 mph /  14.8 km/h 9.2 mph /  14.8 km/h 71 % 0 in /  0.0 mm
21:10 67.3 °F /  19.6 °C 57.9 °F /  14.4 °C 30 in /  1014.8 hPa East 6.9 mph /  11.1 km/h 6.9 mph /  11.1 km/h 72 % 0 in /  0.0 mm
21:15 67.3 °F /  19.6 °C 57.9 °F /  14.4 °C 30 in /  1014.8 hPa East 8.1 mph /  13.0 km/h 8.1 mph /  13.0 km/h 72 % 0 in /  0.0 mm
21:20 67.1 °F /  19.5 °C 57.7 °F /  14.3 °C 30 in /  1015.8 hPa ESE 8.1 mph /  13.0 km/h 8.1 mph /  13.0 km/h 72 % 0 in /  0.0 mm
21:25 67.1 °F /  19.5 °C 57.7 °F /  14.3 °C 30 in /  1015.8 hPa ENE 9.2 mph /  14.8 km/h 9.2 mph /  14.8 km/h 72 % 0 in /  0.0 mm
21:30 66.9 °F /  19.4 °C 57.6 °F /  14.2 °C 30 in /  1015.8 hPa ENE 5.8 mph /  9.3 km/h 5.8 mph /  9.3 km/h 72 % 0 in /  0.0 mm
21:35 66.9 °F /  19.4 °C 57.9 °F /  14.4 °C 30 in /  1015.8 hPa ESE 5.8 mph /  9.3 km/h 5.8 mph /  9.3 km/h 73 % 0 in /  0.0 mm
21:40 66.7 °F /  19.3 °C 57.7 °F /  14.3 °C 30 in /  1015.8 hPa ESE 9.2 mph /  14.8 km/h 9.2 mph /  14.8 km/h 73 % 0 in /  0.0 mm
21:45 66.7 °F /  19.3 °C 57.7 °F /  14.3 °C 30 in /  1015.8 hPa East 5.8 mph /  9.3 km/h 5.8 mph /  9.3 km/h 73 % 0 in /  0.0 mm
21:50 66.7 °F /  19.3 °C 57.7 °F /  14.3 °C 30 in /  1015.8 hPa SSE 8.1 mph /  13.0 km/h 8.1 mph /  13.0 km/h 73 % 0 in /  0.0 mm
21:52 66.7 °F /  19.3 °C 57.7 °F /  14.3 °C 30 in /  1015.8 hPa East 6.9 mph /  11.1 km/h 6.9 mph /  11.1 km/h 73 % 0 in /  0.0 mm
21:55 63.1 °F /  17.3 °C 55.8 °F /  13.2 °C 30.1 in /  1017.8 hPa WSW 1 mph /  1.6 km/h 2 mph /  3.2 km/h 77 % 0 in /  0.0 mm
21:57 66.7 °F /  19.3 °C 57.7 °F /  14.3 °C 30 in /  1015.8 hPa ESE 4.6 mph /  7.4 km/h 4.6 mph /  7.4 km/h 73 % 0 in /  0.0 mm
22:02 66.7 °F /  19.3 °C 58.3 °F /  14.6 °C 30 in /  1015.8 hPa SSE 4.6 mph /  7.4 km/h 4.6 mph /  7.4 km/h 74 % 0 in /  0.0 mm
22:05 63.1 °F /  17.3 °C 55.8 °F /  13.2 °C 30.1 in /  1017.8 hPa WSW 1 mph /  1.6 km/h 2 mph /  3.2 km/h 77 % 0 in /  0.0 mm
22:07 66.7 °F /  19.3 °C 58.3 °F /  14.6 °C 30 in /  1015.8 hPa ESE 5.8 mph /  9.3 km/h 5.8 mph /  9.3 km/h 74 % 0 in /  0.0 mm
22:12 66.7 °F /  19.3 °C 58.3 °F /  14.6 °C 30 in /  1015.8 hPa SSW 4.6 mph /  7.4 km/h 4.6 mph /  7.4 km/h 74 % 0 in /  0.0 mm
22:15 63.1 °F /  17.3 °C 56.1 °F /  13.4 °C 30.1 in /  1017.8 hPa Calm   2 mph /  3.2 km/h 78 % 0 in /  0.0 mm
22:17 66.7 °F /  19.3 °C 57.7 °F /  14.3 °C 30 in /  1015.8 hPa SSE 8.1 mph /  13.0 km/h 8.1 mph /  13.0 km/h 73 % 0 in /  0.0 mm
22:22 66.6 °F /  19.2 °C 57.9 °F /  14.4 °C 30 in /  1015.8 hPa ESE 3.5 mph /  5.6 km/h 3.5 mph /  5.6 km/h 74 % 0 in /  0.0 mm
22:25 63.1 °F /  17.3 °C 56.1 °F /  13.4 °C 30.1 in /  1017.8 hPa West 1 mph /  1.6 km/h 1 mph /  1.6 km/h 78 % 0 in /  0.0 mm
22:27 66.6 °F /  19.2 °C 57.9 °F /  14.4 °C 30 in /  1015.8 hPa ESE 3.5 mph /  5.6 km/h 3.5 mph /  5.6 km/h 74 % 0 in /  0.0 mm
22:32 66.6 °F /  19.2 °C 57.9 °F /  14.4 °C 30 in /  1015.8 hPa ENE 4.6 mph /  7.4 km/h 4.6 mph /  7.4 km/h 74 % 0 in /  0.0 mm
22:35 63.1 °F /  17.3 °C 56.5 °F /  13.6 °C 30.1 in /  1017.8 hPa West 1 mph /  1.6 km/h 1 mph /  1.6 km/h 79 % 0 in /  0.0 mm
22:37 66.4 °F /  19.1 °C 57.7 °F /  14.3 °C 30 in /  1015.8 hPa ESE 4.6 mph /  7.4 km/h 4.6 mph /  7.4 km/h 74 % 0 in /  0.0 mm
22:42 66.4 °F /  19.1 °C 57.7 °F /  14.3 °C 30 in /  1015.8 hPa ESE 5.8 mph /  9.3 km/h 5.8 mph /  9.3 km/h 74 % 0 in /  0.0 mm
22:45 63.3 °F /  17.4 °C 56.7 °F /  13.7 °C 30.1 in /  1017.8 hPa Calm   1 mph /  1.6 km/h 79 % 0 in /  0.0 mm
22:47 66.4 °F /  19.1 °C 57.7 °F /  14.3 °C 30 in /  1015.8 hPa ESE 8.1 mph /  13.0 km/h 8.1 mph /  13.0 km/h 74 % 0 in /  0.0 mm
22:52 66.2 °F /  19.0 °C 57.7 °F /  14.3 °C 30 in /  1016.8 hPa ESE 4 mph /  6.4 km/h 4 mph /  6.4 km/h 74 % 0 in /  0.0 mm
22:55 63.1 °F /  17.3 °C 56.5 °F /  13.6 °C 30.1 in /  1017.8 hPa WSW 2 mph /  3.2 km/h 2 mph /  3.2 km/h 79 % 0 in /  0.0 mm
22:57 66.2 °F /  19.0 °C 57.7 °F /  14.3 °C 30 in /  1016.8 hPa ESE 5.4 mph /  8.7 km/h 5.4 mph /  8.7 km/h 74 % 0 in /  0.0 mm
23:02 66.2 °F /  19.0 °C 57.7 °F /  14.3 °C 30 in /  1016.8 hPa ENE 5.8 mph /  9.3 km/h 5.8 mph /  9.3 km/h 74 % 0 in /  0.0 mm
23:05 62.8 °F /  17.1 °C 56.5 °F /  13.6 °C 30.1 in /  1017.8 hPa Calm   2 mph /  3.2 km/h 80 % 0 in /  0.0 mm
23:07 66.2 °F /  19.0 °C 57.7 °F /  14.3 °C 30 in /  1016.8 hPa ESE 5.8 mph /  9.3 km/h 5.8 mph /  9.3 km/h 74 % 0 in /  0.0 mm
23:12 66.2 °F /  19.0 °C 57.7 °F /  14.3 °C 30 in /  1016.8 hPa SE 4.6 mph /  7.4 km/h 4.6 mph /  7.4 km/h 74 % 0 in /  0.0 mm
23:15 62.8 °F /  17.1 °C 56.5 °F /  13.6 °C 30.1 in /  1017.8 hPa Calm   2 mph /  3.2 km/h 80 % 0 in /  0.0 mm
23:17 66.2 °F /  19.0 °C 57.7 °F /  14.3 °C 30 in /  1016.8 hPa ESE 5.6 mph /  9.0 km/h 5.6 mph /  9.0 km/h 74 % 0 in /  0.0 mm
23:22 66.2 °F /  19.0 °C 57.7 °F /  14.3 °C 30 in /  1016.8 hPa ESE 6.9 mph /  11.1 km/h 6.9 mph /  11.1 km/h 74 % 0 in /  0.0 mm
23:25 62.8 °F /  17.1 °C 56.5 °F /  13.6 °C 30.1 in /  1018.8 hPa Calm   1 mph /  1.6 km/h 80 % 0 in /  0.0 mm
23:27 66 °F /  18.9 °C 57.9 °F /  14.4 °C 30 in /  1016.8 hPa ENE 4.6 mph /  7.4 km/h 4.6 mph /  7.4 km/h 75 % 0 in /  0.0 mm
23:32 66 °F /  18.9 °C 57.9 °F /  14.4 °C 30 in /  1016.8 hPa ESE 5.8 mph /  9.3 km/h 5.8 mph /  9.3 km/h 75 % 0 in /  0.0 mm
23:35 62.6 °F /  17.0 °C 56.7 °F /  13.7 °C 30.1 in /  1018.8 hPa Calm     81 % 0 in /  0.0 mm
23:37 66 °F /  18.9 °C 57.9 °F /  14.4 °C 30 in /  1016.8 hPa NNE 3.5 mph /  5.6 km/h 3.5 mph /  5.6 km/h 75 % 0 in /  0.0 mm
23:42 66.2 °F /  19.0 °C 57.4 °F /  14.1 °C 30 in /  1016.8 hPa SE 2.3 mph /  3.7 km/h 2.3 mph /  3.7 km/h 73 % 0 in /  0.0 mm
23:45 62.8 °F /  17.1 °C 56.8 °F /  13.8 °C 30.1 in /  1018.8 hPa Calm     81 % 0 in /  0.0 mm
23:47 66.2 °F /  19.0 °C 57.7 °F /  14.3 °C 30 in /  1016.8 hPa ESE 4.6 mph /  7.4 km/h 4.6 mph /  7.4 km/h 74 % 0 in /  0.0 mm
23:52 66.2 °F /  19.0 °C 57.4 °F /  14.1 °C 30.1 in /  1017.8 hPa ESE 2.3 mph /  3.7 km/h 2.3 mph /  3.7 km/h 73 % 0 in /  0.0 mm
23:55 62.6 °F /  17.0 °C 56.7 °F /  13.7 °C 30.1 in /  1018.8 hPa Calm     81 % 0 in /  0.0 mm
23:57 66.2 °F /  19.0 °C 57.4 °F /  14.1 °C 30.1 in /  1017.8 hPa East 3.5 mph /  5.6 km/h 3.5 mph /  5.6 km/h 73 % 0 in /  0.0 mm
23:58 66.2 °F /  19.0 °C 57.4 °F /  14.1 °C 30.1 in /  1017.8 hPa South 3.5 mph /  5.6 km/h 3.5 mph /  5.6 km/h 73 % 0 in /  0.0 mm
Meteo Sesrovires
Elogis d' Weather Underground - 3.5 mb

Guio original per  Jim McMurry - jmcmurry@mwt.net Adaptat per a la plantilla per  Wim van der Kuil - Leuven-Template.eu

Trobareu la nostra informacio del temps tambe a:

Weather Underground

AWEKAS